Time;durP1;ratioP1;P1;durP2;ratioP2;P2;SDS_P1;SDS_P2;PMS_P1;PMS_P2;Temp;Humidity;BMP_temperature;BMP_pressure;BME280_temperature;BME280_humidity;BME280_pressure;Samples;Min_cycle;Max_cycle;Signal;HPM_P1;HPM_P2
2022/05/30 00:00:28;;;;;;;14.38;8.23;;;;;;;15.82;90.19;98240.77;1728224;82;20975;-79
2022/05/30 00:02:56;;;;;;;16.23;8.50;;;;;;;15.74;91.21;98242.53;1727697;82;21070;-79
2022/05/30 00:05:25;;;;;;;13.00;8.50;;;;;;;15.70;91.09;98250.17;1727880;83;21011;-79
2022/05/30 00:07:52;;;;;;;14.40;8.88;;;;;;;15.68;91.81;98243.70;1726814;83;21067;-79
2022/05/30 00:10:22;;;;;;;16.15;8.95;;;;;;;15.71;92.58;98242.20;1726580;82;21114;-79
2022/05/30 00:12:49;;;;;;;15.68;8.98;;;;;;;15.74;92.20;98240.36;1730394;82;21467;-79
2022/05/30 00:15:19;;;;;;;17.17;9.33;;;;;;;15.74;91.86;98231.19;1727263;82;21036;-79
2022/05/30 00:17:46;;;;;;;15.18;8.25;;;;;;;15.77;92.54;98226.61;1727139;82;21083;-78
2022/05/30 00:20:14;;;;;;;13.72;8.10;;;;;;;15.82;92.86;98230.28;1726946;83;21098;-79
2022/05/30 00:22:41;;;;;;;14.50;7.97;;;;;;;15.79;91.98;98233.08;1726538;83;21043;-80
2022/05/30 00:25:08;;;;;;;15.93;8.98;;;;;;;15.78;91.84;98226.16;1726455;82;21510;-79
2022/05/30 00:27:34;;;;;;;14.85;8.05;;;;;;;15.74;91.42;98224.63;1728146;82;20995;-79
2022/05/30 00:30:03;;;;;;;15.58;7.95;;;;;;;15.71;91.84;98229.56;1727973;82;21019;-77
2022/05/30 00:32:29;;;;;;;14.28;8.43;;;;;;;15.68;91.73;98233.22;1725790;83;21007;-80
2022/05/30 00:34:56;;;;;;;14.70;8.33;;;;;;;15.63;91.93;98224.78;1706943;83;21012;-79
2022/05/30 00:37:25;;;;;;;13.45;8.95;;;;;;;15.63;92.74;98221.33;1729025;83;21527;-79
2022/05/30 00:39:52;;;;;;;13.55;8.58;;;;;;;15.67;92.85;98222.35;1728562;83;21499;-79
2022/05/30 00:42:23;;;;;;;13.43;8.28;;;;;;;15.69;92.96;98223.58;1727969;82;21023;-78
2022/05/30 00:44:50;;;;;;;15.63;8.85;;;;;;;15.70;93.15;98220.88;1715262;83;20987;-79
2022/05/30 00:47:20;;;;;;;15.48;9.80;;;;;;;15.75;91.74;98231.09;1728403;82;21031;-79
2022/05/30 00:49:49;;;;;;;17.32;9.45;;;;;;;15.71;91.55;98234.33;1728313;82;21578;-79
2022/05/30 00:52:26;;;;;;;19.67;10.13;;;;;;;15.63;92.85;98240.50;1729128;82;21484;-79
2022/05/30 00:55:01;;;;;;;17.27;10.32;;;;;;;15.64;92.68;98245.30;1729043;83;21011;-79
2022/05/30 00:57:31;;;;;;;17.75;9.33;;;;;;;15.60;92.45;98243.80;1736967;82;21055;-78
2022/05/30 01:00:03;;;;;;;16.87;10.50;;;;;;;15.59;92.60;98230.30;1738939;82;21014;-79
2022/05/30 01:02:34;;;;;;;18.07;9.80;;;;;;;15.60;93.37;98231.53;1739206;82;21506;-78
2022/05/30 01:07:48;;;;;;;18.02;10.63;;;;;;;15.59;92.85;98232.92;1739488;82;21002;-79
2022/05/30 01:10:19;;;;;;;17.62;10.50;;;;;;;15.57;93.88;98234.31;1739453;82;21047;-80
2022/05/30 01:12:52;;;;;;;18.85;10.05;;;;;;;15.59;93.77;98228.99;1739452;82;21030;-79
2022/05/30 01:15:22;;;;;;;;;;;;;;;15.61;94.00;98235.82;1741895;82;21010;-79
2022/05/30 01:18:04;;;;;;;17.70;10.85;;;;;;;15.63;94.37;98239.19;1739350;82;20143;-79
2022/05/30 01:20:51;;;;;;;18.80;10.93;;;;;;;15.64;93.85;98238.75;1739677;82;21075;-77
2022/05/30 01:23:38;;;;;;;17.73;10.75;;;;;;;15.62;93.65;98241.45;1739513;82;20963;-79
2022/05/30 01:26:25;;;;;;;17.67;9.53;;;;;;;15.63;93.59;98237.88;1729184;82;21054;-79
2022/05/30 01:29:26;;;;;;;17.02;8.68;;;;;;;15.67;93.64;98246.41;1737975;82;20998;-79
2022/05/30 01:31:55;;;;;;;18.07;10.05;;;;;;;15.69;94.69;98249.30;1739239;82;21066;-79
2022/05/30 01:34:27;;;;;;;17.82;10.10;;;;;;;15.71;93.56;98255.77;1739229;82;21002;-79
2022/05/30 01:36:54;;;;;;;14.60;9.28;;;;;;;15.74;94.63;98249.08;1739517;82;20984;-79
2022/05/30 01:39:21;;;;;;;16.67;9.13;;;;;;;15.77;93.97;98250.19;1739364;82;20991;-79
2022/05/30 01:41:50;;;;;;;15.63;9.65;;;;;;;15.78;93.54;98244.51;1739698;82;21015;-79
2022/05/30 01:44:17;;;;;;;16.65;9.63;;;;;;;15.79;93.35;98256.66;1738220;82;21074;-80
2022/05/30 01:46:44;;;;;;;15.32;9.18;;;;;;;15.79;94.46;98256.19;1738601;82;21054;-79
2022/05/30 01:49:11;;;;;;;13.72;8.68;;;;;;;15.77;94.38;98257.22;1739352;82;21046;-79
2022/05/30 01:51:38;;;;;;;14.28;8.95;;;;;;;15.79;93.08;98264.52;1739390;82;21050;-79
2022/05/30 01:54:07;;;;;;;14.25;8.60;;;;;;;15.74;94.84;98262.63;1739154;82;21067;-79
2022/05/30 01:56:48;;;;;;;16.12;8.20;;;;;;;15.76;94.34;98266.03;1736422;82;21034;-79
2022/05/30 01:59:16;;;;;;;14.53;8.23;;;;;;;15.79;93.46;98275.01;1739297;82;21046;-80
2022/05/30 02:01:45;;;;;;;16.52;9.05;;;;;;;15.77;93.20;98272.94;1739398;82;21073;-79
2022/05/30 02:04:16;;;;;;;14.47;8.38;;;;;;;15.71;94.91;98272.33;1739572;82;21137;-79
2022/05/30 02:06:43;;;;;;;15.38;9.05;;;;;;;15.68;94.67;98271.69;1739323;82;21017;-78
2022/05/30 02:09:11;;;;;;;14.90;8.80;;;;;;;15.65;95.07;98274.00;1739596;82;21138;-79
2022/05/30 02:11:38;;;;;;;12.90;9.05;;;;;;;15.59;96.34;98262.58;1739230;82;21039;-80
2022/05/30 02:14:19;;;;;;;17.45;9.05;;;;;;;15.58;95.66;98274.01;1683765;82;21527;-79
2022/05/30 02:17:01;;;;;;;14.33;8.78;;;;;;;15.55;96.57;98274.17;1739278;82;21046;-80
2022/05/30 02:19:35;;;;;;;14.63;8.53;;;;;;;15.51;96.60;98277.91;1739534;82;20999;-79
2022/05/30 02:22:05;;;;;;;15.43;9.25;;;;;;;15.48;97.13;98280.72;1739434;82;20999;-79
2022/05/30 02:24:32;;;;;;;15.15;9.00;;;;;;;15.49;97.15;98281.92;1739533;82;21003;-79
2022/05/30 02:26:59;;;;;;;14.03;8.55;;;;;;;15.45;97.86;98284.81;1739401;82;21006;-78
2022/05/30 02:29:26;;;;;;;15.53;8.83;;;;;;;15.43;97.39;98290.13;1739257;82;22121;-79
2022/05/30 02:31:54;;;;;;;15.75;9.13;;;;;;;15.43;97.27;98290.61;1739170;82;21571;-80
2022/05/30 02:37:07;;;;;;;12.03;7.20;;;;;;;15.40;97.33;98288.15;1739315;82;21000;-79
2022/05/30 02:39:34;;;;;;;12.70;8.03;;;;;;;15.39;98.58;98283.86;1739225;82;21015;-79
2022/05/30 02:42:11;;;;;;;12.93;8.28;;;;;;;15.35;98.47;98287.11;1739444;82;21034;-78
2022/05/30 02:44:38;;;;;;;10.95;7.30;;;;;;;15.33;99.47;98303.38;1739380;82;21014;-80
2022/05/30 02:47:06;;;;;;;12.23;7.22;;;;;;;15.33;99.91;98296.00;1741164;82;20995;-79
2022/05/30 02:49:33;;;;;;;11.25;6.97;;;;;;;15.30;100.00;98295.25;1743601;82;21043;-78
2022/05/30 02:52:00;;;;;;;13.22;7.28;;;;;;;15.29;100.00;98288.30;1743428;82;21028;-79
2022/05/30 02:54:27;;;;;;;12.35;6.55;;;;;;;15.27;100.00;98284.93;1738903;82;21085;-79
2022/05/30 02:57:10;;;;;;;;;;;;;;;15.28;100.00;98289.25;1708751;82;21071;-79
2022/05/30 02:59:39;;;;;;;10.40;6.17;;;;;;;15.27;100.00;98290.64;1722009;82;20542;-80
2022/05/30 03:02:07;;;;;;;9.80;6.22;;;;;;;15.29;99.67;98290.09;1722140;83;21075;-79
2022/05/30 03:04:34;;;;;;;10.45;5.87;;;;;;;15.26;100.00;98293.73;1713923;83;21047;-80
2022/05/30 03:07:07;;;;;;;8.00;5.30;;;;;;;15.29;100.00;98294.02;1698559;83;21110;-81
2022/05/30 03:09:34;;;;;;;9.75;5.75;;;;;;;15.28;100.00;98301.03;1719561;82;20990;-76
2022/05/30 03:12:12;;;;;;;8.25;5.65;;;;;;;15.26;100.00;98302.03;1732786;82;20984;-79
2022/05/30 03:14:38;;;;;;;7.53;5.12;;;;;;;15.27;100.00;98311.12;1727272;82;21003;-79
2022/05/30 03:17:05;;;;;;;9.58;5.45;;;;;;;15.27;100.00;98311.59;1731066;82;21047;-79
2022/05/30 03:19:33;;;;;;;10.85;5.58;;;;;;;15.31;100.00;98315.72;1728771;82;20952;-80
2022/05/30 03:22:00;;;;;;;10.45;5.25;;;;;;;15.29;100.00;98317.11;1700710;83;21110;-79
2022/05/30 03:24:28;;;;;;;7.80;4.78;;;;;;;15.33;100.00;98318.26;1686306;83;21031;-79
2022/05/30 03:26:55;;;;;;;7.60;4.95;;;;;;;15.35;100.00;98320.33;1696300;84;21531;-80
2022/05/30 03:29:23;;;;;;;7.00;4.80;;;;;;;15.35;100.00;98325.09;1695016;84;20988;-79
2022/05/30 03:31:52;;;;;;;8.13;4.62;;;;;;;15.36;100.00;98318.06;1690835;84;21008;-79
2022/05/30 03:34:20;;;;;;;6.95;4.45;;;;;;;15.38;100.00;98326.23;1692632;84;21123;-79
2022/05/30 03:36:47;;;;;;;6.28;4.12;;;;;;;15.39;100.00;98324.45;1699558;84;21015;-78
2022/05/30 03:39:25;;;;;;;7.10;3.70;;;;;;;15.36;100.00;98325.92;1678701;84;21012;-79
2022/05/30 03:42:04;;;;;;;5.45;3.70;;;;;;;15.39;100.00;98323.14;1641613;86;21059;-79
2022/05/30 03:44:32;;;;;;;6.45;4.15;;;;;;;15.41;100.00;98331.76;1684852;84;21505;-79
2022/05/30 03:46:59;;;;;;;5.78;3.75;;;;;;;15.46;100.00;98340.21;1698752;84;21122;-79
2022/05/30 03:49:26;;;;;;;5.45;3.65;;;;;;;15.48;100.00;98343.11;1694324;84;20960;-79
2022/05/30 03:51:53;;;;;;;6.08;3.55;;;;;;;15.53;100.00;98349.39;1698899;84;21102;-79
2022/05/30 03:54:19;;;;;;;6.67;3.37;;;;;;;15.51;100.00;98351.25;1697922;84;21516;-79
2022/05/30 03:56:48;;;;;;;5.58;3.60;;;;;;;15.56;99.79;98349.67;1695594;84;21039;-79
2022/05/30 03:59:15;;;;;;;5.42;3.35;;;;;;;15.55;100.00;98359.31;1686341;84;21038;-79
2022/05/30 04:01:43;;;;;;;8.33;3.15;;;;;;;15.58;99.47;98353.91;1686839;84;21054;-80
2022/05/30 04:04:12;;;;;;;4.78;2.92;;;;;;;15.60;99.52;98362.52;1683720;85;20991;-79
2022/05/30 04:06:40;;;;;;;4.47;2.40;;;;;;;15.64;99.25;98367.12;1686752;84;21035;-79
2022/05/30 04:09:08;;;;;;;3.60;2.22;;;;;;;15.68;99.34;98370.78;1683978;84;21018;-79
2022/05/30 04:11:51;;;;;;;3.40;2.15;;;;;;;15.72;98.52;98380.63;1643491;86;21039;-79
2022/05/30 04:14:37;;;;;;;4.83;2.67;;;;;;;15.70;98.30;98373.33;1675870;85;21102;-79
2022/05/30 04:17:11;;;;;;;3.37;2.12;;;;;;;15.73;98.43;98381.03;1688131;84;21086;-80
2022/05/30 04:19:38;;;;;;;3.83;2.10;;;;;;;15.79;98.17;98379.83;1691577;84;21027;-80
2022/05/30 04:22:04;;;;;;;4.10;2.42;;;;;;;15.83;98.09;98393.97;1685667;84;21542;-79
2022/05/30 04:24:33;;;;;;;3.50;1.90;;;;;;;15.88;97.81;98396.35;1690949;84;21047;-79
2022/05/30 04:27:01;;;;;;;3.08;1.85;;;;;;;15.90;97.89;98406.28;1688076;84;21018;-79
2022/05/30 04:29:30;;;;;;;4.42;1.77;;;;;;;15.96;97.81;98408.55;1693179;84;21027;-79
2022/05/30 04:31:56;;;;;;;3.20;1.62;;;;;;;16.01;96.97;98415.66;1688795;84;21053;-79
2022/05/30 04:34:23;;;;;;;2.62;1.72;;;;;;;16.07;97.22;98413.98;1687980;84;20990;-79
2022/05/30 04:36:50;;;;;;;2.62;1.52;;;;;;;16.17;96.84;98420.02;1685791;85;21002;-79
2022/05/30 04:39:17;;;;;;;3.50;1.85;;;;;;;16.26;96.59;98425.56;1730025;83;21015;-79
2022/05/30 04:42:05;;;;;;;3.40;1.72;;;;;;;16.35;96.22;98416.29;1722399;83;20971;-79
2022/05/30 04:44:32;;;;;;;3.33;1.85;;;;;;;16.41;95.69;98431.70;1728668;83;21011;-81
2022/05/30 04:47:11;;;;;;;3.15;1.50;;;;;;;16.46;95.54;98433.56;1725785;83;21067;-79
2022/05/30 04:49:41;;;;;;;3.58;1.90;;;;;;;16.53;94.97;98445.83;1726817;83;21595;-79
2022/05/30 04:52:08;;;;;;;4.05;2.50;;;;;;;16.61;94.56;98443.63;1727598;83;21002;-79
2022/05/30 04:54:35;;;;;;;5.78;2.62;;;;;;;16.67;94.33;98446.31;1729224;83;21034;-79
2022/05/30 04:57:21;;;;;;;2.40;1.50;;;;;;;16.74;94.00;98452.06;1727022;82;21558;-79
2022/05/30 04:59:55;;;;;;;2.60;1.20;;;;;;;16.80;92.78;98443.33;1725642;82;21068;-78
2022/05/30 05:02:22;;;;;;;2.85;1.20;;;;;;;16.78;91.92;98449.14;1727002;83;21027;-80
2022/05/30 05:04:49;;;;;;;2.85;1.20;;;;;;;16.89;92.32;98447.20;1728319;82;20996;-79
2022/05/30 05:07:16;;;;;;;2.35;1.30;;;;;;;16.94;92.29;98445.63;1728240;82;22049;-79
2022/05/30 05:09:57;;;;;;;3.22;1.20;;;;;;;17.05;92.38;98433.97;1728338;82;21098;-79
2022/05/30 05:12:43;;;;;;;1.80;1.10;;;;;;;17.16;92.00;98444.66;1663855;86;21575;-79
2022/05/30 05:15:30;;;;;;;2.15;0.90;;;;;;;17.28;90.87;98436.00;1648248;86;21588;-79
2022/05/30 05:18:11;;;;;;;4.00;1.00;;;;;;;17.26;90.26;98441.83;1697986;83;21548;-79
2022/05/30 05:20:42;;;;;;;2.05;1.20;;;;;;;17.28;89.83;98440.42;1715710;82;21023;-79
2022/05/30 05:23:11;;;;;;;3.33;1.65;;;;;;;17.32;89.73;98443.23;1726279;83;21066;-79
2022/05/30 05:25:49;;;;;;;2.33;1.32;;;;;;;17.32;89.45;98455.05;1714617;82;21526;-79
2022/05/30 05:28:36;;;;;;;2.15;1.22;;;;;;;17.34;89.45;98453.64;1705987;83;20976;-80
2022/05/30 05:31:06;;;;;;;2.60;1.07;;;;;;;17.32;88.86;98458.98;1729808;82;21062;-79
2022/05/30 05:33:33;;;;;;;2.55;1.40;;;;;;;17.34;89.56;98464.16;1704423;83;21523;-81
2022/05/30 05:36:02;;;;;;;2.67;1.50;;;;;;;17.41;89.05;98465.47;1726915;82;21059;-80
2022/05/30 05:38:29;;;;;;;4.03;1.40;;;;;;;17.42;89.25;98469.77;1727923;83;21031;-80
2022/05/30 05:41:09;;;;;;;2.87;1.57;;;;;;;17.40;88.54;98468.54;1711824;82;21067;-79
2022/05/30 05:43:38;;;;;;;3.52;1.80;;;;;;;17.46;88.92;98473.89;1730530;81;21074;-82
2022/05/30 05:46:04;;;;;;;4.90;2.10;;;;;;;17.45;88.43;98477.47;1732910;81;21032;-78
2022/05/30 05:48:31;;;;;;;5.10;2.08;;;;;;;17.42;87.41;98488.16;1726116;81;21010;-80
2022/05/30 05:50:58;;;;;;;7.00;1.92;;;;;;;17.45;87.80;98476.16;1730999;83;21071;-83
2022/05/30 05:53:25;;;;;;;3.35;1.57;;;;;;;17.44;87.84;98481.02;1731823;83;20992;-80
2022/05/30 05:55:51;;;;;;;4.90;2.10;;;;;;;17.56;87.79;98484.66;1718854;81;21063;-80
2022/05/30 05:58:18;;;;;;;3.62;1.80;;;;;;;17.61;87.34;98497.05;1724965;81;21083;-80
2022/05/30 06:00:45;;;;;;;5.03;2.30;;;;;;;17.78;86.94;98490.70;1731334;81;20994;-82
2022/05/30 06:03:12;;;;;;;3.85;1.80;;;;;;;17.91;87.31;98487.70;1728451;83;21650;-80
2022/05/30 06:05:43;;;;;;;4.40;1.98;;;;;;;18.13;87.29;98483.67;1730834;81;21052;-83
2022/05/30 06:08:28;;;;;;;4.12;2.42;;;;;;;18.35;86.67;98497.08;1726810;81;21011;-82
2022/05/30 06:11:08;;;;;;;4.40;2.20;;;;;;;18.49;84.73;98490.89;1715123;83;21051;-82
2022/05/30 06:13:40;;;;;;;6.50;2.60;;;;;;;18.59;84.39;98496.39;1726520;81;21110;-83
2022/05/30 06:16:12;;;;;;;6.83;2.40;;;;;;;18.63;82.96;98504.45;1729837;82;21083;-81
2022/05/30 06:18:43;;;;;;;8.23;2.42;;;;;;;18.61;81.74;98508.97;1731224;81;21002;-81
2022/05/30 06:21:11;;;;;;;9.13;2.87;;;;;;;18.56;81.74;98512.38;1704641;84;21040;-82
2022/05/30 06:23:40;;;;;;;7.80;2.30;;;;;;;18.72;82.42;98507.78;1733418;81;21035;-85
2022/05/30 06:26:10;;;;;;;5.97;2.72;;;;;;;18.72;81.42;98510.87;1711135;82;21015;-82
2022/05/30 06:28:40;;;;;;;9.03;3.35;;;;;;;18.78;80.21;98520.98;1705798;81;21721;-81
2022/05/30 06:31:18;;;;;;;;;;;;;;;18.92;79.79;98518.75;1709026;83;21118;-81
2022/05/30 06:33:47;;;;;;;8.25;2.70;;;;;;;19.08;80.14;98525.52;1727294;81;20151;-80
2022/05/30 06:36:19;;;;;;;8.08;2.80;;;;;;;19.17;79.85;98530.61;1726919;81;21032;-81
2022/05/30 06:38:47;;;;;;;4.87;2.62;;;;;;;19.31;79.39;98530.97;1723869;81;21048;-81
2022/05/30 06:41:19;;;;;;;7.97;2.80;;;;;;;19.35;78.39;98527.65;1723159;81;20980;-81
2022/05/30 06:43:47;;;;;;;9.10;2.35;;;;;;;19.40;77.97;98529.50;1728392;81;22123;-81
2022/05/30 06:46:35;;;;;;;7.65;2.60;;;;;;;19.34;74.90;98540.44;1728028;83;21004;-81
2022/05/30 06:49:19;;;;;;;9.23;2.60;;;;;;;19.23;76.08;98541.20;1696178;82;21565;-82
2022/05/30 06:51:52;;;;;;;7.25;2.10;;;;;;;19.17;76.25;98545.10;1725986;81;21752;-80
2022/05/30 06:54:20;;;;;;;4.70;2.00;;;;;;;19.16;76.67;98553.97;1702603;82;21059;-83
2022/05/30 06:59:35;;;;;;;6.25;1.98;;;;;;;19.15;76.69;98557.54;1725880;81;21047;-79
2022/05/30 07:02:05;;;;;;;5.58;2.20;;;;;;;19.09;77.05;98556.64;1729260;83;21058;-80
2022/05/30 07:04:43;;;;;;;7.25;2.08;;;;;;;19.19;78.23;98564.77;1705053;82;21137;-82
2022/05/30 07:07:11;;;;;;;8.20;2.42;;;;;;;19.24;78.06;98562.19;1677399;81;21487;-81
2022/05/30 07:09:43;;;;;;;6.90;2.55;;;;;;;19.30;77.95;98557.42;1717187;82;21038;-81
2022/05/30 07:12:12;;;;;;;4.97;2.50;;;;;;;19.34;77.75;98557.58;1728972;81;21089;-80
2022/05/30 07:14:39;;;;;;;8.85;2.65;;;;;;;19.23;76.54;98559.17;1728150;83;21514;-80
2022/05/30 07:17:10;;;;;;;5.45;2.20;;;;;;;19.18;77.02;98563.06;1704198;82;21017;-80
2022/05/30 07:19:37;;;;;;;7.30;2.50;;;;;;;19.20;77.37;98563.80;1722050;81;21038;-80
2022/05/30 07:22:06;;;;;;;6.80;2.70;;;;;;;19.25;76.67;98571.77;1726402;81;20984;-80
2022/05/30 07:24:51;;;;;;;5.85;2.22;;;;;;;19.13;76.96;98566.02;1726815;81;21061;-79
2022/05/30 07:27:23;;;;;;;4.95;2.27;;;;;;;19.08;77.12;98560.25;1721664;82;21029;-80
2022/05/30 07:30:09;;;;;;;9.88;2.27;;;;;;;19.15;76.10;98564.61;1725764;81;21117;-79
2022/05/30 07:32:42;;;;;;;9.20;2.35;;;;;;;19.18;76.73;98564.38;1682419;81;21528;-80
2022/05/30 07:35:27;;;;;;;4.35;2.37;;;;;;;19.32;77.05;98568.25;1721486;82;21593;-79
2022/05/30 07:38:12;;;;;;;7.92;2.55;;;;;;;19.35;76.63;98569.33;1727254;81;20976;-80
2022/05/30 07:40:44;;;;;;;8.15;2.65;;;;;;;19.44;75.58;98571.82;1724611;81;21011;-79
2022/05/30 07:43:30;;;;;;;4.53;2.45;;;;;;;19.52;75.54;98576.53;1721922;82;20973;-80
2022/05/30 07:46:08;;;;;;;8.13;2.60;;;;;;;19.57;75.28;98577.06;1733026;82;21060;-80
2022/05/30 07:48:44;;;;;;;8.78;2.98;;;;;;;19.64;74.92;98579.16;1692279;82;21011;-80
2022/05/30 07:51:16;;;;;;;5.00;2.60;;;;;;;19.59;75.04;98586.55;1697868;81;21071;-79
2022/05/30 07:53:45;;;;;;;7.05;2.77;;;;;;;19.61;75.03;98585.13;1728495;82;20976;-81
2022/05/30 07:56:28;;;;;;;6.33;2.55;;;;;;;19.74;74.92;98587.78;1730756;83;21047;-81
2022/05/30 07:58:56;;;;;;;8.18;3.35;;;;;;;19.76;74.06;98595.11;1716105;82;21000;-82
2022/05/30 08:01:23;;;;;;;9.08;3.12;;;;;;;19.84;74.31;98596.25;1725865;82;21530;-80
2022/05/30 08:03:52;;;;;;;16.87;3.45;;;;;;;19.96;73.72;98598.48;1724258;82;21073;-79
2022/05/30 08:06:24;;;;;;;9.18;2.95;;;;;;;19.95;73.55;98602.06;1726091;81;21024;-81
2022/05/30 08:09:10;;;;;;;5.28;2.70;;;;;;;20.10;72.31;98596.17;1719679;82;21021;-78
2022/05/30 08:11:38;;;;;;;9.15;3.12;;;;;;;20.22;70.64;98610.28;1683062;84;22309;-78
2022/05/30 08:14:07;;;;;;;6.10;2.80;;;;;;;20.26;71.96;98610.42;1728110;81;21560;-78
2022/05/30 08:16:37;;;;;;;6.60;3.05;;;;;;;20.26;72.09;98608.62;1725264;83;20976;-79
2022/05/30 08:19:02;;;;;;;7.75;3.12;;;;;;;20.28;70.24;98609.00;1722150;82;21062;-78
2022/05/30 08:21:29;;;;;;;6.12;2.92;;;;;;;20.34;70.24;98610.70;1727953;81;22449;-79
2022/05/30 08:23:56;;;;;;;10.88;3.20;;;;;;;20.43;70.50;98613.13;1716811;82;20964;-80
2022/05/30 08:26:23;;;;;;;8.18;3.35;;;;;;;20.47;70.15;98614.59;1726198;81;21016;-80
2022/05/30 08:28:51;;;;;;;6.60;2.90;;;;;;;20.59;69.26;98615.06;1716750;81;21067;-78
2022/05/30 08:31:18;;;;;;;9.70;2.52;;;;;;;20.70;67.65;98616.06;1725787;81;21019;-79
2022/05/30 08:33:47;;;;;;;5.60;2.92;;;;;;;20.76;67.50;98619.08;1714392;82;21389;-80
2022/05/30 08:36:16;;;;;;;5.45;2.70;;;;;;;20.65;66.21;98621.21;1724917;82;21058;-80
2022/05/30 08:38:43;;;;;;;5.90;2.70;;;;;;;20.61;64.90;98634.28;1729339;81;21027;-79
2022/05/30 08:44:01;;;;;;;6.85;2.62;;;;;;;20.48;66.32;98622.89;1728579;81;20996;-78
2022/05/30 08:46:58;;;;;;;8.25;2.87;;;;;;;20.50;66.15;98634.67;1725036;81;21031;-80
2022/05/30 08:49:35;;;;;;;9.05;3.52;;;;;;;20.55;66.33;98635.16;1724531;81;21047;-79
2022/05/30 08:52:20;;;;;;;7.42;3.30;;;;;;;20.50;65.53;98639.47;1728502;81;21042;-81
2022/05/30 08:55:13;;;;;;;6.15;3.52;;;;;;;20.42;59.93;98657.67;1700937;83;21082;-80
2022/05/30 08:57:59;;;;;;;6.55;3.37;;;;;;;20.24;59.93;98638.23;1694877;83;21020;-81
2022/05/30 09:00:45;;;;;;;12.75;3.87;;;;;;;20.10;59.06;98644.16;1697472;83;21507;-81
2022/05/30 09:03:41;;;;;;;7.40;3.87;;;;;;;20.23;61.62;98640.53;1691216;84;21108;-79
2022/05/30 09:06:22;;;;;;;7.55;3.47;;;;;;;20.24;60.00;98637.41;1689770;83;21090;-81
2022/05/30 09:09:04;;;;;;;7.67;3.90;;;;;;;20.42;61.03;98639.19;1696264;83;21027;-80
2022/05/30 09:11:52;;;;;;;7.95;3.58;;;;;;;20.41;59.89;98641.45;1688159;84;21061;-80
2022/05/30 09:14:41;;;;;;;7.03;3.95;;;;;;;20.45;60.07;98633.66;1686806;83;21029;-80
2022/05/30 09:17:14;;;;;;;8.58;4.40;;;;;;;20.52;59.40;98642.00;1684337;84;21043;-81
2022/05/30 09:19:42;;;;;;;8.53;4.25;;;;;;;20.48;59.52;98633.45;1697360;83;21039;-82
2022/05/30 09:22:10;;;;;;;8.33;4.33;;;;;;;20.48;59.48;98634.77;1688308;84;21101;-79
2022/05/30 09:24:41;;;;;;;7.58;3.70;;;;;;;20.48;60.00;98639.22;1695032;83;22294;-81
2022/05/30 09:27:08;;;;;;;10.43;3.92;;;;;;;20.55;60.10;98643.95;1697052;84;21106;-80
2022/05/30 09:29:48;;;;;;;7.42;3.50;;;;;;;20.58;58.67;98633.62;1685663;84;21027;-81
2022/05/30 09:32:50;;;;;;;6.03;3.65;;;;;;;20.58;58.77;98641.55;1683994;84;21026;-82
2022/05/30 09:35:32;;;;;;;13.13;3.87;;;;;;;20.53;58.92;98634.43;1647393;84;21098;-81
2022/05/30 09:38:22;;;;;;;12.82;3.80;;;;;;;20.58;58.86;98637.59;1655644;85;21102;-82
2022/05/30 09:40:59;;;;;;;10.30;4.12;;;;;;;20.65;59.88;98639.70;1690808;83;21147;-81
2022/05/30 09:43:51;;;;;;;8.28;3.87;;;;;;;20.75;61.89;98637.67;1673507;83;21082;-81
2022/05/30 09:46:38;;;;;;;7.92;4.28;;;;;;;20.77;62.75;98641.05;1693734;83;20993;-81
2022/05/30 09:49:27;;;;;;;8.30;3.58;;;;;;;20.86;62.12;98633.28;1687908;83;21045;-80
2022/05/30 09:52:04;;;;;;;10.23;3.95;;;;;;;20.98;62.17;98642.58;1694442;84;21529;-80
2022/05/30 09:54:39;;;;;;;9.63;4.17;;;;;;;20.94;61.39;98640.64;1696757;84;21551;-79
2022/05/30 09:57:31;;;;;;;12.68;3.80;;;;;;;21.02;61.75;98642.70;1690963;83;21004;-81
2022/05/30 10:00:11;;;;;;;9.18;3.55;;;;;;;21.06;61.65;98634.91;1666202;84;21085;-81
2022/05/30 10:02:45;;;;;;;9.58;3.52;;;;;;;21.18;61.26;98635.78;1654481;85;21569;-80
2022/05/30 10:05:33;;;;;;;10.45;3.85;;;;;;;21.18;60.94;98640.58;1684634;84;21043;-80
2022/05/30 10:08:07;;;;;;;9.25;3.47;;;;;;;21.20;60.34;98640.47;1675918;84;21019;-80
2022/05/30 10:10:43;;;;;;;9.25;4.22;;;;;;;21.25;61.09;98641.81;1696116;83;21079;-80
2022/05/30 10:13:10;;;;;;;7.80;3.55;;;;;;;21.33;60.81;98643.00;1690076;83;21068;-80
2022/05/30 10:15:56;;;;;;;6.67;3.50;;;;;;;21.42;60.50;98635.21;1661303;83;21083;-80
2022/05/30 10:18:33;;;;;;;7.97;3.22;;;;;;;21.38;61.04;98631.12;1696169;84;21060;-81
2022/05/30 10:21:22;;;;;;;6.12;3.77;;;;;;;21.42;60.51;98637.02;1695272;83;21027;-80
2022/05/30 10:30:32;;;;;;;7.47;3.45;;;;;;;21.73;60.56;98632.04;1620397;87;21604;-80
2022/05/30 10:33:37;;;;;;;8.93;3.80;;;;;;;21.75;59.54;98631.44;1679561;85;21034;-80
2022/05/30 10:36:32;;;;;;;13.08;4.20;;;;;;;21.83;59.28;98636.97;1685292;83;21515;-79
2022/05/30 10:39:13;;;;;;;9.48;4.08;;;;;;;21.92;60.30;98645.97;1671297;85;21004;-79
2022/05/30 10:41:51;;;;;;;6.22;3.17;;;;;;;22.01;59.35;98640.79;1676965;85;21019;-81
2022/05/30 10:44:32;;;;;;;12.50;3.67;;;;;;;22.04;59.89;98636.59;1675247;84;21093;-80
2022/05/30 10:47:18;;;;;;;7.30;3.72;;;;;;;22.23;59.56;98643.88;1685657;85;20994;-80
2022/05/30 10:49:58;;;;;;;6.65;3.50;;;;;;;22.38;58.09;98638.34;1668317;84;21338;-80
2022/05/30 10:52:48;;;;;;;8.23;3.58;;;;;;;22.62;57.42;98642.11;1683085;84;21043;-81
2022/05/30 10:55:33;;;;;;;10.60;3.72;;;;;;;22.72;57.58;98641.74;1681547;85;21029;-81
2022/05/30 10:58:08;;;;;;;7.90;3.37;;;;;;;22.80;56.77;98643.73;1682297;85;21478;-80
2022/05/30 11:00:43;;;;;;;8.73;3.70;;;;;;;22.76;56.64;98641.84;1694664;84;21106;-81
2022/05/30 11:03:37;;;;;;;12.03;4.28;;;;;;;22.90;57.36;98638.05;1701346;83;21017;-80
2022/05/30 11:06:18;;;;;;;7.03;3.58;;;;;;;22.88;57.23;98639.98;1704823;82;21149;-80
2022/05/30 11:09:29;;;;;;;7.28;3.47;;;;;;;23.02;57.41;98644.17;1703832;83;21009;-79
2022/05/30 11:12:24;;;;;;;8.45;3.75;;;;;;;23.05;56.68;98636.44;1687802;84;21485;-80
2022/05/30 11:15:08;;;;;;;6.00;3.62;;;;;;;23.12;55.93;98638.45;1699182;82;21035;-80
2022/05/30 11:18:26;;;;;;;5.67;3.30;;;;;;;23.06;55.88;98632.34;1699711;82;21058;-80
2022/05/30 11:21:29;;;;;;;12.45;3.40;;;;;;;23.22;56.48;98621.28;1658551;83;21558;-82
2022/05/30 11:24:00;;;;;;;10.90;3.83;;;;;;;23.26;55.33;98635.09;1698436;83;20976;-81
2022/05/30 11:26:58;;;;;;;8.35;3.22;;;;;;;23.32;54.65;98639.91;1701155;84;21078;-81
2022/05/30 11:30:02;;;;;;;6.78;3.02;;;;;;;23.38;55.34;98640.21;1699611;82;21130;-82
2022/05/30 11:33:06;;;;;;;12.98;3.62;;;;;;;23.53;55.50;98646.00;1657784;85;21086;-80
2022/05/30 11:35:35;;;;;;;;;;;;;;;23.49;55.25;98643.26;1728602;82;20992;-80
2022/05/30 11:38:07;;;;;;;8.88;3.22;;;;;;;23.55;55.11;98644.55;1725387;83;20497;-79
2022/05/30 11:40:51;;;;;;;11.60;4.03;;;;;;;23.58;54.67;98654.91;1724651;82;21562;-79
2022/05/30 11:43:56;;;;;;;7.78;3.20;;;;;;;23.66;55.27;98656.91;1716380;83;21044;-79
2022/05/30 11:46:44;;;;;;;8.45;2.98;;;;;;;23.77;54.81;98649.70;1723925;82;21050;-80
2022/05/30 11:49:28;;;;;;;9.33;3.15;;;;;;;23.92;54.63;98650.20;1730863;81;21031;-80
2022/05/30 11:52:18;;;;;;;6.70;3.40;;;;;;;24.08;54.29;98655.50;1722949;81;21083;-79
2022/05/30 11:54:56;;;;;;;10.53;3.37;;;;;;;24.04;53.60;98656.25;1699143;82;21038;-78
2022/05/30 11:57:46;;;;;;;9.18;3.00;;;;;;;24.42;53.80;98650.19;1726474;83;21125;-78
2022/05/30 12:00:40;;;;;;;8.10;3.17;;;;;;;24.50;53.52;98658.83;1722059;81;21056;-79
2022/05/30 12:03:25;;;;;;;8.80;3.80;;;;;;;24.59;52.53;98645.19;1715377;83;21024;-79
2022/05/30 12:06:28;;;;;;;7.62;3.20;;;;;;;24.89;53.00;98651.36;1720703;81;21042;-80
2022/05/30 12:09:06;;;;;;;7.47;3.00;;;;;;;25.20;52.14;98656.03;1724262;81;21342;-79
2022/05/30 12:12:03;;;;;;;7.67;2.87;;;;;;;25.45;52.08;98656.45;1688380;84;20970;-78
2022/05/30 12:14:57;;;;;;;9.15;3.37;;;;;;;25.76;49.11;98652.55;1691498;83;21016;-78
2022/05/30 12:17:32;;;;;;;8.90;3.05;;;;;;;25.96;49.67;98646.70;1695639;83;21527;-78
2022/05/30 12:25:55;;;;;;;8.10;3.00;;;;;;;27.92;46.57;98632.57;1696236;83;21015;-80
2022/05/30 12:28:34;;;;;;;6.60;2.83;;;;;;;28.80;44.84;98629.45;1689033;84;21027;-81
2022/05/30 12:31:05;;;;;;;7.00;2.42;;;;;;;29.30;44.89;98639.16;1674181;84;21091;-80